Accueil
METAR-TAF:

METAR-TAF

Aéroports :

Sault Ste. Marie Municipal Airport (Sanderson Field)

Sault Ste. Marie, Michigan, États-Unis

latitude: 46-28-46N, longitude: 084-21-26W, altitude: 210 m

Observation

Le bulletin a été fait il y a 19 minutes, à 17:55 UTC
Vent 8 kt de ouest/sud-ouest avec des rafales jusqu'à 18 kt
Température 18°C
Humidité 56%
Pression 1008 hPa
Visibilité: 16.1 km
Quelques nuages à une hauteur de 3500 ft
Ciel couvert à une hauteur de 4300 ft

METAR: KANJ 261755Z AUTO 25008G18KT 10SM FEW035 OVC043 18/09 A2976 RMK AO2 SLP075 T01830094 10189 20094 58016 $

Heure: 14:14 (18:14 UTC)


TAF: absent

Observations et prévisions météorologiques de plus de 4000 aéroports (messages METAR et TAF).

Les stations disponibles sont représentées par des disques jaunes et rouges sur la carte.

Passer la souris dessus pour voir le nom de la station.

Cliquer dessus pour voir les observations et prévisions météorologiques.

Pour changer de carte: cliquez sur les boutons verts avec une croix noire pour zoomer, sur le bouton vert avec un tiret pour effectuer un zoom arrière, ou sur les flèches vertes pour les cartes adjacentes.


METAR-TAF: